sensor_id;sensor_type;location;lat;lon;timestamp;P1;durP1;ratioP1;P2;durP2;ratioP2
10847;SDS011;5477;48.806;9.154;2023-08-30T00:00:05;10.87;;;9.80;;
10847;SDS011;5477;48.806;9.154;2023-08-30T00:02:34;10.10;;;9.10;;
10847;SDS011;5477;48.806;9.154;2023-08-30T00:05:04;10.33;;;9.33;;
10847;SDS011;5477;48.806;9.154;2023-08-30T00:07:32;9.13;;;8.33;;
10847;SDS011;5477;48.806;9.154;2023-08-30T00:10:00;10.10;;;9.03;;
10847;SDS011;5477;48.806;9.154;2023-08-30T00:12:29;10.57;;;9.67;;
10847;SDS011;5477;48.806;9.154;2023-08-30T00:14:58;10.13;;;9.13;;
10847;SDS011;5477;48.806;9.154;2023-08-30T00:17:26;9.40;;;8.37;;
10847;SDS011;5477;48.806;9.154;2023-08-30T00:19:54;9.67;;;8.77;;
10847;SDS011;5477;48.806;9.154;2023-08-30T00:22:23;9.53;;;8.63;;
10847;SDS011;5477;48.806;9.154;2023-08-30T00:24:51;10.33;;;9.17;;
10847;SDS011;5477;48.806;9.154;2023-08-30T00:27:19;10.10;;;9.10;;
10847;SDS011;5477;48.806;9.154;2023-08-30T00:29:48;10.00;;;9.10;;
10847;SDS011;5477;48.806;9.154;2023-08-30T00:32:16;9.63;;;8.53;;
10847;SDS011;5477;48.806;9.154;2023-08-30T00:34:45;9.67;;;8.63;;
10847;SDS011;5477;48.806;9.154;2023-08-30T00:37:13;9.03;;;8.23;;
10847;SDS011;5477;48.806;9.154;2023-08-30T00:39:42;10.00;;;8.90;;
10847;SDS011;5477;48.806;9.154;2023-08-30T00:42:10;8.87;;;7.97;;
10847;SDS011;5477;48.806;9.154;2023-08-30T00:44:38;8.27;;;7.47;;
10847;SDS011;5477;48.806;9.154;2023-08-30T00:47:07;9.10;;;8.27;;
10847;SDS011;5477;48.806;9.154;2023-08-30T00:49:35;8.53;;;7.70;;
10847;SDS011;5477;48.806;9.154;2023-08-30T00:52:05;8.43;;;7.57;;
10847;SDS011;5477;48.806;9.154;2023-08-30T00:54:36;8.43;;;7.63;;
10847;SDS011;5477;48.806;9.154;2023-08-30T00:57:06;8.47;;;7.80;;
10847;SDS011;5477;48.806;9.154;2023-08-30T00:59:35;8.80;;;7.90;;
10847;SDS011;5477;48.806;9.154;2023-08-30T01:02:03;8.63;;;7.67;;
10847;SDS011;5477;48.806;9.154;2023-08-30T01:04:33;8.43;;;7.73;;
10847;SDS011;5477;48.806;9.154;2023-08-30T01:07:01;8.97;;;8.17;;
10847;SDS011;5477;48.806;9.154;2023-08-30T01:09:29;8.93;;;8.03;;
10847;SDS011;5477;48.806;9.154;2023-08-30T01:12:00;8.53;;;7.80;;
10847;SDS011;5477;48.806;9.154;2023-08-30T01:14:34;8.67;;;7.80;;
10847;SDS011;5477;48.806;9.154;2023-08-30T01:17:08;9.57;;;7.90;;
10847;SDS011;5477;48.806;9.154;2023-08-30T01:19:41;8.67;;;7.77;;
10847;SDS011;5477;48.806;9.154;2023-08-30T01:22:16;9.23;;;7.93;;
10847;SDS011;5477;48.806;9.154;2023-08-30T01:24:51;8.53;;;7.67;;
10847;SDS011;5477;48.806;9.154;2023-08-30T01:27:30;8.57;;;7.77;;
10847;SDS011;5477;48.806;9.154;2023-08-30T01:30:01;9.20;;;8.17;;
10847;SDS011;5477;48.806;9.154;2023-08-30T01:32:31;8.30;;;7.40;;
10847;SDS011;5477;48.806;9.154;2023-08-30T01:35:01;8.33;;;7.63;;
10847;SDS011;5477;48.806;9.154;2023-08-30T01:37:30;8.27;;;7.57;;
10847;SDS011;5477;48.806;9.154;2023-08-30T01:40:00;8.57;;;7.23;;
10847;SDS011;5477;48.806;9.154;2023-08-30T01:42:32;8.53;;;7.73;;
10847;SDS011;5477;48.806;9.154;2023-08-30T01:45:01;8.00;;;7.20;;
10847;SDS011;5477;48.806;9.154;2023-08-30T01:47:33;10.30;;;7.50;;
10847;SDS011;5477;48.806;9.154;2023-08-30T01:50:03;8.10;;;7.20;;
10847;SDS011;5477;48.806;9.154;2023-08-30T01:52:32;8.03;;;7.13;;
10847;SDS011;5477;48.806;9.154;2023-08-30T01:55:01;8.53;;;7.73;;
10847;SDS011;5477;48.806;9.154;2023-08-30T01:57:31;8.47;;;7.37;;
10847;SDS011;5477;48.806;9.154;2023-08-30T01:59:59;8.40;;;7.60;;
10847;SDS011;5477;48.806;9.154;2023-08-30T02:02:28;8.80;;;7.90;;
10847;SDS011;5477;48.806;9.154;2023-08-30T02:04:56;8.60;;;7.83;;
10847;SDS011;5477;48.806;9.154;2023-08-30T02:07:28;8.10;;;7.33;;
10847;SDS011;5477;48.806;9.154;2023-08-30T02:10:06;7.97;;;7.27;;
10847;SDS011;5477;48.806;9.154;2023-08-30T02:12:39;8.70;;;7.80;;
10847;SDS011;5477;48.806;9.154;2023-08-30T02:15:11;8.30;;;7.53;;
10847;SDS011;5477;48.806;9.154;2023-08-30T02:17:40;8.27;;;7.47;;
10847;SDS011;5477;48.806;9.154;2023-08-30T02:20:10;8.63;;;7.80;;
10847;SDS011;5477;48.806;9.154;2023-08-30T02:22:38;8.77;;;7.77;;
10847;SDS011;5477;48.806;9.154;2023-08-30T02:25:07;8.27;;;7.47;;
10847;SDS011;5477;48.806;9.154;2023-08-30T02:27:37;8.77;;;7.97;;
10847;SDS011;5477;48.806;9.154;2023-08-30T02:30:07;9.20;;;7.70;;
10847;SDS011;5477;48.806;9.154;2023-08-30T02:32:35;10.13;;;7.63;;
10847;SDS011;5477;48.806;9.154;2023-08-30T02:35:04;9.00;;;8.10;;
10847;SDS011;5477;48.806;9.154;2023-08-30T02:37:32;8.23;;;7.53;;
10847;SDS011;5477;48.806;9.154;2023-08-30T02:40:00;8.90;;;8.10;;
10847;SDS011;5477;48.806;9.154;2023-08-30T02:42:29;11.77;;;8.30;;
10847;SDS011;5477;48.806;9.154;2023-08-30T02:44:58;8.27;;;7.47;;
10847;SDS011;5477;48.806;9.154;2023-08-30T02:47:32;12.00;;;7.90;;
10847;SDS011;5477;48.806;9.154;2023-08-30T02:50:51;9.20;;;8.20;;
10847;SDS011;5477;48.806;9.154;2023-08-30T02:57:24;9.20;;;8.23;;
10847;SDS011;5477;48.806;9.154;2023-08-30T03:00:25;9.53;;;8.50;;
10847;SDS011;5477;48.806;9.154;2023-08-30T03:02:58;9.30;;;8.00;;
10847;SDS011;5477;48.806;9.154;2023-08-30T03:10:03;8.10;;;7.30;;
10847;SDS011;5477;48.806;9.154;2023-08-30T03:13:02;9.30;;;7.83;;
10847;SDS011;5477;48.806;9.154;2023-08-30T03:15:52;8.80;;;7.90;;
10847;SDS011;5477;48.806;9.154;2023-08-30T03:19:17;9.47;;;8.43;;
10847;SDS011;5477;48.806;9.154;2023-08-30T03:22:20;10.10;;;9.10;;
10847;SDS011;5477;48.806;9.154;2023-08-30T03:25:44;13.13;;;8.50;;
10847;SDS011;5477;48.806;9.154;2023-08-30T03:29:10;9.67;;;8.77;;
10847;SDS011;5477;48.806;9.154;2023-08-30T03:32:42;9.53;;;8.53;;
10847;SDS011;5477;48.806;9.154;2023-08-30T03:35:46;9.17;;;8.27;;
10847;SDS011;5477;48.806;9.154;2023-08-30T03:39:19;10.17;;;8.97;;
10847;SDS011;5477;48.806;9.154;2023-08-30T03:45:11;8.83;;;7.33;;
10847;SDS011;5477;48.806;9.154;2023-08-30T03:48:14;8.07;;;7.27;;
10847;SDS011;5477;48.806;9.154;2023-08-30T03:52:00;8.13;;;7.23;;
10847;SDS011;5477;48.806;9.154;2023-08-30T03:55:55;8.77;;;7.87;;
10847;SDS011;5477;48.806;9.154;2023-08-30T03:59:10;10.33;;;7.70;;
10847;SDS011;5477;48.806;9.154;2023-08-30T04:02:45;11.60;;;7.83;;
10847;SDS011;5477;48.806;9.154;2023-08-30T04:09:27;7.57;;;6.87;;
10847;SDS011;5477;48.806;9.154;2023-08-30T04:12:41;8.23;;;7.43;;
10847;SDS011;5477;48.806;9.154;2023-08-30T04:15:33;7.63;;;6.90;;
10847;SDS011;5477;48.806;9.154;2023-08-30T04:18:54;7.67;;;6.90;;
10847;SDS011;5477;48.806;9.154;2023-08-30T04:24:55;8.63;;;6.87;;
10847;SDS011;5477;48.806;9.154;2023-08-30T04:26:33;8.13;;;7.27;;
10847;SDS011;5477;48.806;9.154;2023-08-30T04:33:12;8.83;;;7.67;;
10847;SDS011;5477;48.806;9.154;2023-08-30T04:36:46;9.20;;;8.30;;
10847;SDS011;5477;48.806;9.154;2023-08-30T04:39:41;8.93;;;8.03;;
10847;SDS011;5477;48.806;9.154;2023-08-30T04:47:02;9.50;;;8.43;;
10847;SDS011;5477;48.806;9.154;2023-08-30T04:50:35;8.40;;;7.50;;
10847;SDS011;5477;48.806;9.154;2023-08-30T04:53:45;9.83;;;8.20;;
10847;SDS011;5477;48.806;9.154;2023-08-30T04:56:34;9.30;;;8.33;;
10847;SDS011;5477;48.806;9.154;2023-08-30T05:00:17;11.03;;;8.50;;
10847;SDS011;5477;48.806;9.154;2023-08-30T05:03:39;9.90;;;8.90;;
10847;SDS011;5477;48.806;9.154;2023-08-30T05:07:14;10.63;;;8.80;;
10847;SDS011;5477;48.806;9.154;2023-08-30T05:10:36;10.57;;;9.30;;
10847;SDS011;5477;48.806;9.154;2023-08-30T05:13:59;9.60;;;8.67;;
10847;SDS011;5477;48.806;9.154;2023-08-30T05:20:49;9.50;;;8.43;;
10847;SDS011;5477;48.806;9.154;2023-08-30T05:24:32;12.30;;;9.60;;
10847;SDS011;5477;48.806;9.154;2023-08-30T05:28:10;10.13;;;8.73;;
10847;SDS011;5477;48.806;9.154;2023-08-30T05:31:28;9.43;;;8.20;;
10847;SDS011;5477;48.806;9.154;2023-08-30T05:34:56;8.77;;;7.90;;
10847;SDS011;5477;48.806;9.154;2023-08-30T05:38:27;9.03;;;8.10;;
10847;SDS011;5477;48.806;9.154;2023-08-30T05:46:11;8.83;;;8.03;;
10847;SDS011;5477;48.806;9.154;2023-08-30T05:51:47;10.07;;;9.07;;
10847;SDS011;5477;48.806;9.154;2023-08-30T05:54:34;9.00;;;8.20;;
10847;SDS011;5477;48.806;9.154;2023-08-30T05:58:12;9.53;;;8.57;;
10847;SDS011;5477;48.806;9.154;2023-08-30T06:04:47;10.73;;;8.57;;
10847;SDS011;5477;48.806;9.154;2023-08-30T06:07:15;9.73;;;8.70;;
10847;SDS011;5477;48.806;9.154;2023-08-30T06:09:44;11.63;;;9.07;;
10847;SDS011;5477;48.806;9.154;2023-08-30T06:12:12;9.03;;;8.10;;
10847;SDS011;5477;48.806;9.154;2023-08-30T06:14:40;9.70;;;8.00;;
10847;SDS011;5477;48.806;9.154;2023-08-30T06:17:09;10.10;;;7.97;;
10847;SDS011;5477;48.806;9.154;2023-08-30T06:19:37;8.53;;;7.73;;
10847;SDS011;5477;48.806;9.154;2023-08-30T06:22:05;8.57;;;7.60;;
10847;SDS011;5477;48.806;9.154;2023-08-30T06:24:33;10.73;;;7.60;;
10847;SDS011;5477;48.806;9.154;2023-08-30T06:27:03;9.27;;;8.27;;
10847;SDS011;5477;48.806;9.154;2023-08-30T06:29:31;7.83;;;7.17;;
10847;SDS011;5477;48.806;9.154;2023-08-30T06:31:59;8.07;;;6.90;;
10847;SDS011;5477;48.806;9.154;2023-08-30T06:34:28;7.93;;;7.13;;
10847;SDS011;5477;48.806;9.154;2023-08-30T06:36:57;7.17;;;6.53;;
10847;SDS011;5477;48.806;9.154;2023-08-30T06:39:25;6.90;;;6.10;;
10847;SDS011;5477;48.806;9.154;2023-08-30T06:41:52;6.73;;;6.13;;
10847;SDS011;5477;48.806;9.154;2023-08-30T06:44:27;7.47;;;5.93;;
10847;SDS011;5477;48.806;9.154;2023-08-30T06:46:56;7.00;;;6.40;;
10847;SDS011;5477;48.806;9.154;2023-08-30T06:49:27;8.57;;;6.47;;
10847;SDS011;5477;48.806;9.154;2023-08-30T06:51:57;6.20;;;5.70;;
10847;SDS011;5477;48.806;9.154;2023-08-30T06:54:28;9.63;;;7.43;;
10847;SDS011;5477;48.806;9.154;2023-08-30T06:56:57;7.70;;;7.00;;
10847;SDS011;5477;48.806;9.154;2023-08-30T06:59:26;7.13;;;6.40;;
10847;SDS011;5477;48.806;9.154;2023-08-30T07:01:56;9.57;;;7.07;;
10847;SDS011;5477;48.806;9.154;2023-08-30T07:04:24;7.67;;;7.00;;
10847;SDS011;5477;48.806;9.154;2023-08-30T07:06:52;7.40;;;6.70;;
10847;SDS011;5477;48.806;9.154;2023-08-30T07:09:20;7.77;;;6.70;;
10847;SDS011;5477;48.806;9.154;2023-08-30T07:11:49;7.13;;;6.40;;
10847;SDS011;5477;48.806;9.154;2023-08-30T07:14:17;7.47;;;6.77;;
10847;SDS011;5477;48.806;9.154;2023-08-30T07:16:48;6.80;;;6.10;;
10847;SDS011;5477;48.806;9.154;2023-08-30T07:19:16;7.00;;;6.40;;
10847;SDS011;5477;48.806;9.154;2023-08-30T07:21:44;8.77;;;6.70;;
10847;SDS011;5477;48.806;9.154;2023-08-30T07:24:12;7.00;;;6.30;;
10847;SDS011;5477;48.806;9.154;2023-08-30T07:26:40;7.00;;;6.40;;
10847;SDS011;5477;48.806;9.154;2023-08-30T07:29:08;6.70;;;6.10;;
10847;SDS011;5477;48.806;9.154;2023-08-30T07:31:36;6.90;;;6.20;;
10847;SDS011;5477;48.806;9.154;2023-08-30T07:34:06;6.57;;;5.97;;
10847;SDS011;5477;48.806;9.154;2023-08-30T07:36:34;7.53;;;6.70;;
10847;SDS011;5477;48.806;9.154;2023-08-30T07:39:13;6.63;;;5.93;;
10847;SDS011;5477;48.806;9.154;2023-08-30T07:41:41;6.57;;;5.97;;
10847;SDS011;5477;48.806;9.154;2023-08-30T07:44:09;6.13;;;5.53;;
10847;SDS011;5477;48.806;9.154;2023-08-30T07:46:37;6.40;;;5.53;;
10847;SDS011;5477;48.806;9.154;2023-08-30T07:49:06;6.07;;;5.53;;
10847;SDS011;5477;48.806;9.154;2023-08-30T07:51:35;6.13;;;5.57;;
10847;SDS011;5477;48.806;9.154;2023-08-30T07:54:03;6.10;;;5.50;;
10847;SDS011;5477;48.806;9.154;2023-08-30T07:56:31;7.07;;;5.40;;
10847;SDS011;5477;48.806;9.154;2023-08-30T07:58:59;6.30;;;5.57;;
10847;SDS011;5477;48.806;9.154;2023-08-30T08:01:27;8.80;;;5.97;;
10847;SDS011;5477;48.806;9.154;2023-08-30T08:03:55;6.70;;;6.03;;
10847;SDS011;5477;48.806;9.154;2023-08-30T08:06:34;7.57;;;5.80;;
10847;SDS011;5477;48.806;9.154;2023-08-30T08:09:03;7.20;;;6.10;;
10847;SDS011;5477;48.806;9.154;2023-08-30T08:11:34;6.50;;;5.90;;
10847;SDS011;5477;48.806;9.154;2023-08-30T08:14:02;6.37;;;5.77;;
10847;SDS011;5477;48.806;9.154;2023-08-30T08:16:30;6.30;;;5.70;;
10847;SDS011;5477;48.806;9.154;2023-08-30T08:18:58;6.30;;;5.70;;
10847;SDS011;5477;48.806;9.154;2023-08-30T08:21:27;8.53;;;5.60;;
10847;SDS011;5477;48.806;9.154;2023-08-30T08:23:57;8.30;;;5.67;;
10847;SDS011;5477;48.806;9.154;2023-08-30T08:26:25;7.87;;;6.17;;
10847;SDS011;5477;48.806;9.154;2023-08-30T08:28:53;6.37;;;5.70;;
10847;SDS011;5477;48.806;9.154;2023-08-30T08:31:21;6.03;;;5.43;;
10847;SDS011;5477;48.806;9.154;2023-08-30T08:33:50;9.13;;;5.73;;
10847;SDS011;5477;48.806;9.154;2023-08-30T08:36:20;8.47;;;5.17;;
10847;SDS011;5477;48.806;9.154;2023-08-30T08:38:48;6.07;;;5.57;;
10847;SDS011;5477;48.806;9.154;2023-08-30T08:41:17;5.53;;;5.03;;
10847;SDS011;5477;48.806;9.154;2023-08-30T08:43:45;5.37;;;4.83;;
10847;SDS011;5477;48.806;9.154;2023-08-30T08:46:14;5.27;;;4.53;;
10847;SDS011;5477;48.806;9.154;2023-08-30T08:48:44;5.27;;;4.77;;
10847;SDS011;5477;48.806;9.154;2023-08-30T08:51:15;4.93;;;4.50;;
10847;SDS011;5477;48.806;9.154;2023-08-30T08:53:44;4.57;;;4.17;;
10847;SDS011;5477;48.806;9.154;2023-08-30T08:56:12;4.27;;;3.97;;
10847;SDS011;5477;48.806;9.154;2023-08-30T08:58:42;6.03;;;4.37;;
10847;SDS011;5477;48.806;9.154;2023-08-30T09:01:11;4.53;;;3.97;;
10847;SDS011;5477;48.806;9.154;2023-08-30T09:03:59;4.93;;;3.80;;
10847;SDS011;5477;48.806;9.154;2023-08-30T09:06:31;4.17;;;3.63;;
10847;SDS011;5477;48.806;9.154;2023-08-30T09:08:59;4.20;;;3.80;;
10847;SDS011;5477;48.806;9.154;2023-08-30T09:11:29;3.40;;;3.10;;
10847;SDS011;5477;48.806;9.154;2023-08-30T09:14:17;4.37;;;3.10;;
10847;SDS011;5477;48.806;9.154;2023-08-30T09:16:53;3.43;;;2.93;;
10847;SDS011;5477;48.806;9.154;2023-08-30T09:19:22;3.17;;;2.87;;
10847;SDS011;5477;48.806;9.154;2023-08-30T09:21:50;3.90;;;2.80;;
10847;SDS011;5477;48.806;9.154;2023-08-30T09:24:19;3.53;;;2.77;;
10847;SDS011;5477;48.806;9.154;2023-08-30T09:26:47;2.60;;;2.20;;
10847;SDS011;5477;48.806;9.154;2023-08-30T09:29:18;2.80;;;2.60;;
10847;SDS011;5477;48.806;9.154;2023-08-30T09:31:50;2.30;;;2.10;;
10847;SDS011;5477;48.806;9.154;2023-08-30T09:34:21;3.70;;;2.07;;
10847;SDS011;5477;48.806;9.154;2023-08-30T09:36:50;2.97;;;2.67;;
10847;SDS011;5477;48.806;9.154;2023-08-30T09:39:18;2.97;;;2.33;;
10847;SDS011;5477;48.806;9.154;2023-08-30T09:41:47;4.20;;;2.90;;
10847;SDS011;5477;48.806;9.154;2023-08-30T09:44:18;4.23;;;2.23;;
10847;SDS011;5477;48.806;9.154;2023-08-30T09:46:49;5.87;;;2.67;;
10847;SDS011;5477;48.806;9.154;2023-08-30T09:49:19;2.07;;;1.93;;
10847;SDS011;5477;48.806;9.154;2023-08-30T09:51:49;2.50;;;2.30;;
10847;SDS011;5477;48.806;9.154;2023-08-30T09:54:19;2.47;;;2.27;;
10847;SDS011;5477;48.806;9.154;2023-08-30T09:57:05;3.37;;;2.20;;
10847;SDS011;5477;48.806;9.154;2023-08-30T09:59:35;2.30;;;2.10;;
10847;SDS011;5477;48.806;9.154;2023-08-30T10:02:04;5.40;;;2.10;;
10847;SDS011;5477;48.806;9.154;2023-08-30T10:04:34;1.77;;;1.47;;
10847;SDS011;5477;48.806;9.154;2023-08-30T10:07:05;2.17;;;1.97;;
10847;SDS011;5477;48.806;9.154;2023-08-30T10:09:35;3.30;;;1.90;;
10847;SDS011;5477;48.806;9.154;2023-08-30T10:12:20;4.60;;;2.67;;
10847;SDS011;5477;48.806;9.154;2023-08-30T10:14:50;3.47;;;1.80;;
10847;SDS011;5477;48.806;9.154;2023-08-30T10:17:18;4.00;;;1.53;;
10847;SDS011;5477;48.806;9.154;2023-08-30T10:19:48;3.93;;;2.00;;
10847;SDS011;5477;48.806;9.154;2023-08-30T10:22:19;3.40;;;1.73;;
10847;SDS011;5477;48.806;9.154;2023-08-30T10:24:51;1.53;;;1.43;;
10847;SDS011;5477;48.806;9.154;2023-08-30T10:27:28;2.57;;;1.60;;
10847;SDS011;5477;48.806;9.154;2023-08-30T10:29:59;1.80;;;1.60;;
10847;SDS011;5477;48.806;9.154;2023-08-30T10:32:29;1.50;;;1.40;;
10847;SDS011;5477;48.806;9.154;2023-08-30T10:35:00;1.60;;;1.47;;
10847;SDS011;5477;48.806;9.154;2023-08-30T10:37:29;2.07;;;1.60;;
10847;SDS011;5477;48.806;9.154;2023-08-30T10:40:01;1.70;;;1.50;;
10847;SDS011;5477;48.806;9.154;2023-08-30T10:42:30;2.30;;;1.60;;
10847;SDS011;5477;48.806;9.154;2023-08-30T10:45:00;2.93;;;1.80;;
10847;SDS011;5477;48.806;9.154;2023-08-30T10:47:39;1.57;;;1.40;;
10847;SDS011;5477;48.806;9.154;2023-08-30T10:50:08;1.50;;;1.40;;
10847;SDS011;5477;48.806;9.154;2023-08-30T10:52:38;2.37;;;1.90;;
10847;SDS011;5477;48.806;9.154;2023-08-30T10:55:06;3.10;;;1.60;;
10847;SDS011;5477;48.806;9.154;2023-08-30T10:57:35;3.00;;;1.60;;
10847;SDS011;5477;48.806;9.154;2023-08-30T11:00:06;2.47;;;1.70;;
10847;SDS011;5477;48.806;9.154;2023-08-30T11:02:36;2.10;;;1.50;;
10847;SDS011;5477;48.806;9.154;2023-08-30T11:05:05;2.27;;;1.30;;
10847;SDS011;5477;48.806;9.154;2023-08-30T11:07:34;2.23;;;1.70;;
10847;SDS011;5477;48.806;9.154;2023-08-30T11:10:04;2.07;;;1.47;;
10847;SDS011;5477;48.806;9.154;2023-08-30T11:12:32;2.77;;;1.57;;
10847;SDS011;5477;48.806;9.154;2023-08-30T11:15:02;2.33;;;1.63;;
10847;SDS011;5477;48.806;9.154;2023-08-30T11:17:32;1.60;;;1.50;;
10847;SDS011;5477;48.806;9.154;2023-08-30T11:20:07;2.57;;;1.67;;
10847;SDS011;5477;48.806;9.154;2023-08-30T11:22:37;2.73;;;1.77;;
10847;SDS011;5477;48.806;9.154;2023-08-30T11:25:05;1.70;;;1.50;;
10847;SDS011;5477;48.806;9.154;2023-08-30T11:27:36;2.40;;;2.10;;
10847;SDS011;5477;48.806;9.154;2023-08-30T11:30:05;4.03;;;2.30;;
10847;SDS011;5477;48.806;9.154;2023-08-30T11:32:36;4.30;;;2.23;;
10847;SDS011;5477;48.806;9.154;2023-08-30T11:35:06;2.83;;;2.40;;
10847;SDS011;5477;48.806;9.154;2023-08-30T11:37:34;3.60;;;2.73;;
10847;SDS011;5477;48.806;9.154;2023-08-30T11:40:03;3.80;;;2.80;;
10847;SDS011;5477;48.806;9.154;2023-08-30T11:42:33;3.47;;;3.17;;
10847;SDS011;5477;48.806;9.154;2023-08-30T11:45:01;3.50;;;3.20;;
10847;SDS011;5477;48.806;9.154;2023-08-30T11:47:30;5.83;;;3.50;;
10847;SDS011;5477;48.806;9.154;2023-08-30T11:50:00;8.03;;;3.73;;
10847;SDS011;5477;48.806;9.154;2023-08-30T11:52:28;4.20;;;3.67;;
10847;SDS011;5477;48.806;9.154;2023-08-30T11:54:57;5.07;;;3.40;;
10847;SDS011;5477;48.806;9.154;2023-08-30T11:57:25;3.90;;;3.50;;
10847;SDS011;5477;48.806;9.154;2023-08-30T11:59:54;3.50;;;3.20;;
10847;SDS011;5477;48.806;9.154;2023-08-30T12:02:22;3.57;;;2.83;;
10847;SDS011;5477;48.806;9.154;2023-08-30T12:04:50;3.00;;;2.70;;
10847;SDS011;5477;48.806;9.154;2023-08-30T12:07:24;4.83;;;2.90;;
10847;SDS011;5477;48.806;9.154;2023-08-30T12:10:03;5.27;;;3.40;;
10847;SDS011;5477;48.806;9.154;2023-08-30T12:12:31;4.00;;;3.23;;
10847;SDS011;5477;48.806;9.154;2023-08-30T12:14:59;3.50;;;3.20;;
10847;SDS011;5477;48.806;9.154;2023-08-30T12:17:29;5.50;;;3.37;;
10847;SDS011;5477;48.806;9.154;2023-08-30T12:19:57;4.37;;;3.30;;
10847;SDS011;5477;48.806;9.154;2023-08-30T12:22:36;3.53;;;3.03;;
10847;SDS011;5477;48.806;9.154;2023-08-30T12:25:15;3.13;;;2.83;;
10847;SDS011;5477;48.806;9.154;2023-08-30T12:27:43;3.70;;;3.17;;
10847;SDS011;5477;48.806;9.154;2023-08-30T12:30:12;3.57;;;3.27;;
10847;SDS011;5477;48.806;9.154;2023-08-30T12:32:40;3.33;;;3.03;;
10847;SDS011;5477;48.806;9.154;2023-08-30T12:35:08;4.77;;;3.53;;
10847;SDS011;5477;48.806;9.154;2023-08-30T12:37:38;4.60;;;3.57;;
10847;SDS011;5477;48.806;9.154;2023-08-30T12:40:06;3.90;;;3.53;;
10847;SDS011;5477;48.806;9.154;2023-08-30T12:42:34;4.50;;;4.00;;
10847;SDS011;5477;48.806;9.154;2023-08-30T12:45:02;3.90;;;3.40;;
10847;SDS011;5477;48.806;9.154;2023-08-30T12:47:31;3.50;;;3.20;;
10847;SDS011;5477;48.806;9.154;2023-08-30T12:49:59;3.43;;;3.00;;
10847;SDS011;5477;48.806;9.154;2023-08-30T12:52:27;5.23;;;3.27;;
10847;SDS011;5477;48.806;9.154;2023-08-30T12:54:56;4.17;;;3.37;;
10847;SDS011;5477;48.806;9.154;2023-08-30T12:57:24;3.93;;;3.10;;
10847;SDS011;5477;48.806;9.154;2023-08-30T12:59:53;2.83;;;2.60;;
10847;SDS011;5477;48.806;9.154;2023-08-30T13:02:21;3.03;;;2.57;;
10847;SDS011;5477;48.806;9.154;2023-08-30T13:04:49;2.83;;;2.50;;
10847;SDS011;5477;48.806;9.154;2023-08-30T13:07:17;2.30;;;2.10;;
10847;SDS011;5477;48.806;9.154;2023-08-30T13:09:45;2.67;;;2.20;;
10847;SDS011;5477;48.806;9.154;2023-08-30T13:12:14;3.73;;;2.70;;
10847;SDS011;5477;48.806;9.154;2023-08-30T13:14:43;2.73;;;2.53;;
10847;SDS011;5477;48.806;9.154;2023-08-30T13:17:11;4.03;;;2.70;;
10847;SDS011;5477;48.806;9.154;2023-08-30T13:19:39;3.00;;;2.70;;
10847;SDS011;5477;48.806;9.154;2023-08-30T13:22:07;3.37;;;2.70;;
10847;SDS011;5477;48.806;9.154;2023-08-30T13:24:36;5.60;;;2.23;;
10847;SDS011;5477;48.806;9.154;2023-08-30T13:27:04;2.67;;;2.30;;
10847;SDS011;5477;48.806;9.154;2023-08-30T13:29:33;2.53;;;2.10;;
10847;SDS011;5477;48.806;9.154;2023-08-30T13:32:01;4.00;;;2.10;;
10847;SDS011;5477;48.806;9.154;2023-08-30T13:34:30;2.13;;;1.93;;
10847;SDS011;5477;48.806;9.154;2023-08-30T13:36:58;2.77;;;2.30;;
10847;SDS011;5477;48.806;9.154;2023-08-30T13:39:26;3.03;;;2.30;;
10847;SDS011;5477;48.806;9.154;2023-08-30T13:41:54;2.13;;;1.97;;
10847;SDS011;5477;48.806;9.154;2023-08-30T13:44:22;2.17;;;2.00;;
10847;SDS011;5477;48.806;9.154;2023-08-30T13:46:52;2.10;;;1.90;;
10847;SDS011;5477;48.806;9.154;2023-08-30T13:49:20;5.77;;;2.03;;
10847;SDS011;5477;48.806;9.154;2023-08-30T13:51:48;2.23;;;1.90;;
10847;SDS011;5477;48.806;9.154;2023-08-30T13:54:15;2.67;;;1.80;;
10847;SDS011;5477;48.806;9.154;2023-08-30T13:56:43;2.07;;;1.90;;
10847;SDS011;5477;48.806;9.154;2023-08-30T13:59:11;2.07;;;1.90;;
10847;SDS011;5477;48.806;9.154;2023-08-30T14:01:39;2.97;;;1.70;;
10847;SDS011;5477;48.806;9.154;2023-08-30T14:04:09;2.10;;;1.90;;
10847;SDS011;5477;48.806;9.154;2023-08-30T14:06:37;4.50;;;2.10;;
10847;SDS011;5477;48.806;9.154;2023-08-30T14:09:05;2.10;;;1.90;;
10847;SDS011;5477;48.806;9.154;2023-08-30T14:11:34;1.97;;;1.80;;
10847;SDS011;5477;48.806;9.154;2023-08-30T14:14:04;4.63;;;1.93;;
10847;SDS011;5477;48.806;9.154;2023-08-30T14:16:32;2.20;;;2.00;;
10847;SDS011;5477;48.806;9.154;2023-08-30T14:19:00;2.90;;;2.30;;
10847;SDS011;5477;48.806;9.154;2023-08-30T14:21:33;2.33;;;2.10;;
10847;SDS011;5477;48.806;9.154;2023-08-30T14:24:01;2.30;;;2.13;;
10847;SDS011;5477;48.806;9.154;2023-08-30T14:26:29;2.87;;;2.20;;
10847;SDS011;5477;48.806;9.154;2023-08-30T14:28:57;2.27;;;2.00;;
10847;SDS011;5477;48.806;9.154;2023-08-30T14:31:25;1.90;;;1.70;;
10847;SDS011;5477;48.806;9.154;2023-08-30T14:33:54;3.53;;;2.23;;
10847;SDS011;5477;48.806;9.154;2023-08-30T14:36:23;2.77;;;2.20;;
10847;SDS011;5477;48.806;9.154;2023-08-30T14:38:53;3.00;;;2.13;;
10847;SDS011;5477;48.806;9.154;2023-08-30T14:41:21;3.73;;;2.27;;
10847;SDS011;5477;48.806;9.154;2023-08-30T14:43:49;3.27;;;1.90;;
10847;SDS011;5477;48.806;9.154;2023-08-30T14:46:17;2.80;;;2.50;;
10847;SDS011;5477;48.806;9.154;2023-08-30T14:48:50;4.47;;;2.30;;
10847;SDS011;5477;48.806;9.154;2023-08-30T14:51:18;2.80;;;2.50;;
10847;SDS011;5477;48.806;9.154;2023-08-30T14:53:46;2.73;;;2.20;;
10847;SDS011;5477;48.806;9.154;2023-08-30T14:56:15;3.43;;;2.20;;
10847;SDS011;5477;48.806;9.154;2023-08-30T14:58:44;2.90;;;2.60;;
10847;SDS011;5477;48.806;9.154;2023-08-30T15:01:15;2.70;;;2.50;;
10847;SDS011;5477;48.806;9.154;2023-08-30T15:03:43;2.83;;;2.50;;
10847;SDS011;5477;48.806;9.154;2023-08-30T15:06:12;2.67;;;2.40;;
10847;SDS011;5477;48.806;9.154;2023-08-30T15:08:40;4.33;;;2.50;;
10847;SDS011;5477;48.806;9.154;2023-08-30T15:11:08;4.80;;;2.80;;
10847;SDS011;5477;48.806;9.154;2023-08-30T15:13:38;3.03;;;2.60;;
10847;SDS011;5477;48.806;9.154;2023-08-30T15:16:06;4.13;;;2.80;;
10847;SDS011;5477;48.806;9.154;2023-08-30T15:18:34;3.70;;;2.33;;
10847;SDS011;5477;48.806;9.154;2023-08-30T15:21:02;3.37;;;2.27;;
10847;SDS011;5477;48.806;9.154;2023-08-30T15:23:30;3.53;;;2.43;;
10847;SDS011;5477;48.806;9.154;2023-08-30T15:25:58;2.50;;;2.30;;
10847;SDS011;5477;48.806;9.154;2023-08-30T15:28:26;2.30;;;1.90;;
10847;SDS011;5477;48.806;9.154;2023-08-30T15:30:55;2.93;;;2.33;;
10847;SDS011;5477;48.806;9.154;2023-08-30T15:33:23;3.57;;;2.50;;
10847;SDS011;5477;48.806;9.154;2023-08-30T15:35:56;2.80;;;2.40;;
10847;SDS011;5477;48.806;9.154;2023-08-30T15:38:25;2.60;;;2.20;;
10847;SDS011;5477;48.806;9.154;2023-08-30T15:40:53;2.80;;;1.80;;
10847;SDS011;5477;48.806;9.154;2023-08-30T15:43:21;4.20;;;2.00;;
10847;SDS011;5477;48.806;9.154;2023-08-30T15:45:50;2.27;;;2.07;;
10847;SDS011;5477;48.806;9.154;2023-08-30T15:48:19;3.50;;;2.10;;
10847;SDS011;5477;48.806;9.154;2023-08-30T15:50:48;2.40;;;2.20;;
10847;SDS011;5477;48.806;9.154;2023-08-30T15:53:16;2.73;;;2.00;;
10847;SDS011;5477;48.806;9.154;2023-08-30T15:55:44;1.77;;;1.67;;
10847;SDS011;5477;48.806;9.154;2023-08-30T15:58:12;2.40;;;1.73;;
10847;SDS011;5477;48.806;9.154;2023-08-30T16:00:40;2.17;;;1.83;;
10847;SDS011;5477;48.806;9.154;2023-08-30T16:03:09;2.10;;;1.90;;
10847;SDS011;5477;48.806;9.154;2023-08-30T16:05:39;4.47;;;1.97;;
10847;SDS011;5477;48.806;9.154;2023-08-30T16:08:08;3.33;;;1.40;;
10847;SDS011;5477;48.806;9.154;2023-08-30T16:10:36;1.97;;;1.53;;
10847;SDS011;5477;48.806;9.154;2023-08-30T16:13:04;2.00;;;1.80;;
10847;SDS011;5477;48.806;9.154;2023-08-30T16:15:32;3.07;;;1.90;;
10847;SDS011;5477;48.806;9.154;2023-08-30T16:18:00;4.40;;;2.10;;
10847;SDS011;5477;48.806;9.154;2023-08-30T16:20:28;1.97;;;1.83;;
10847;SDS011;5477;48.806;9.154;2023-08-30T16:22:59;3.70;;;2.03;;
10847;SDS011;5477;48.806;9.154;2023-08-30T16:25:27;3.33;;;2.17;;
10847;SDS011;5477;48.806;9.154;2023-08-30T16:27:56;2.50;;;2.30;;